createdAt,value
2022-11-05T00:00:29.730Z,1008.63
2022-11-05T00:01:34.079Z,1008.63
2022-11-05T00:02:38.140Z,1008.64
2022-11-05T00:03:42.523Z,1008.66
2022-11-05T00:04:49.625Z,1008.65
2022-11-05T00:05:52.864Z,1008.68
2022-11-05T00:06:57.099Z,1008.69
2022-11-05T00:08:01.294Z,1008.73
2022-11-05T00:09:05.553Z,1008.75
2022-11-05T00:10:09.861Z,1008.75
2022-11-05T00:11:18.074Z,1008.73
2022-11-05T00:12:18.293Z,1008.74
2022-11-05T00:13:22.625Z,1008.74
2022-11-05T00:14:26.915Z,1008.75
2022-11-05T00:15:31.072Z,1008.76
2022-11-05T00:16:35.290Z,1008.78
2022-11-05T00:17:39.527Z,1008.77
2022-11-05T00:18:43.844Z,1008.78
2022-11-05T00:19:48.060Z,1008.76
2022-11-05T00:20:52.290Z,1008.77
2022-11-05T00:21:56.573Z,1008.81
2022-11-05T00:23:00.762Z,1008.82
2022-11-05T00:24:04.987Z,1008.85
2022-11-05T00:25:09.241Z,1008.85
2022-11-05T00:26:13.352Z,1008.87
2022-11-05T00:27:17.772Z,1008.88
2022-11-05T00:28:21.945Z,1008.88
2022-11-05T00:29:26.176Z,1008.88
2022-11-05T00:30:30.388Z,1008.90
2022-11-05T00:31:34.479Z,1008.91
2022-11-05T00:32:38.830Z,1008.92
2022-11-05T00:33:42.978Z,1008.90
2022-11-05T00:34:47.084Z,1008.94
2022-11-05T00:35:51.438Z,1008.93
2022-11-05T00:36:55.512Z,1008.94
2022-11-05T00:37:59.794Z,1008.94
2022-11-05T00:39:03.990Z,1008.94
2022-11-05T00:40:08.206Z,1008.95
2022-11-05T00:41:12.437Z,1008.97
2022-11-05T00:42:16.794Z,1008.95
2022-11-05T00:43:20.971Z,1008.96
2022-11-05T00:44:25.255Z,1008.95
2022-11-05T00:45:29.419Z,1008.97
2022-11-05T00:46:33.652Z,1008.99
2022-11-05T00:47:37.893Z,1009.00
2022-11-05T00:48:42.106Z,1009.00
2022-11-05T00:49:46.338Z,1009.02
2022-11-05T00:50:50.592Z,1009.01
2022-11-05T00:51:54.824Z,1008.99
2022-11-05T00:52:59.166Z,1008.98
2022-11-05T00:54:03.286Z,1009.01
2022-11-05T00:55:10.491Z,1009.00
2022-11-05T00:56:13.764Z,1009.02
2022-11-05T00:57:17.985Z,1009.03
2022-11-05T00:58:22.324Z,1009.05
2022-11-05T00:59:26.455Z,1009.07
2022-11-05T01:00:30.765Z,1009.10
2022-11-05T01:01:35.056Z,1009.10
2022-11-05T01:02:39.257Z,1009.11
2022-11-05T01:03:48.848Z,1009.13
2022-11-05T01:04:47.651Z,1009.14
2022-11-05T01:05:51.896Z,1009.15
2022-11-05T01:06:56.168Z,1009.15
2022-11-05T01:08:00.340Z,1009.18
2022-11-05T01:09:04.665Z,1009.18
2022-11-05T01:10:08.810Z,1009.19
2022-11-05T01:11:13.136Z,1009.22
2022-11-05T01:12:17.414Z,1009.21
2022-11-05T01:13:21.673Z,1009.23
2022-11-05T01:14:25.830Z,1009.22
2022-11-05T01:15:30.044Z,1009.21
2022-11-05T01:16:34.369Z,1009.22
2022-11-05T01:17:38.621Z,1009.24
2022-11-05T01:18:42.945Z,1009.29
2022-11-05T01:19:47.079Z,1009.31
2022-11-05T01:20:51.297Z,1009.32
2022-11-05T01:21:55.600Z,1009.31
2022-11-05T01:22:59.839Z,1009.32
2022-11-05T01:24:04.023Z,1009.33
2022-11-05T01:25:08.345Z,1009.32
2022-11-05T01:26:12.459Z,1009.33
2022-11-05T01:27:16.662Z,1009.36
2022-11-05T01:28:20.885Z,1009.40
2022-11-05T01:29:25.184Z,1009.39
2022-11-05T01:30:29.375Z,1009.40
2022-11-05T01:31:33.607Z,1009.40
2022-11-05T01:32:37.809Z,1009.39
2022-11-05T01:33:42.055Z,1009.37
2022-11-05T01:34:46.390Z,1009.37
2022-11-05T01:35:50.546Z,1009.35
2022-11-05T01:36:54.752Z,1009.34
2022-11-05T01:37:58.959Z,1009.36
2022-11-05T01:39:03.231Z,1009.35
2022-11-05T01:40:07.417Z,1009.36
2022-11-05T01:41:11.648Z,1009.39
2022-11-05T01:42:15.913Z,1009.39
2022-11-05T01:43:20.177Z,1009.40
2022-11-05T01:44:24.457Z,1009.39
2022-11-05T01:45:28.700Z,1009.39
2022-11-05T01:46:32.861Z,1009.40
2022-11-05T01:47:37.091Z,1009.42
2022-11-05T01:48:41.298Z,1009.43
2022-11-05T01:49:45.615Z,1009.42
2022-11-05T01:50:49.879Z,1009.42
2022-11-05T01:51:54.071Z,1009.43
2022-11-05T01:52:58.395Z,1009.46
2022-11-05T01:54:02.557Z,1009.49
2022-11-05T01:55:06.754Z,1009.50
2022-11-05T01:56:11.025Z,1009.53
2022-11-05T01:57:15.312Z,1009.52
2022-11-05T01:58:19.533Z,1009.55
2022-11-05T01:59:23.783Z,1009.54
2022-11-05T02:00:28.036Z,1009.55
2022-11-05T02:01:32.392Z,1009.53
2022-11-05T02:02:36.597Z,1009.54
2022-11-05T02:03:40.656Z,1009.57
2022-11-05T02:04:44.817Z,1009.55
2022-11-05T02:05:49.129Z,1009.54
2022-11-05T02:06:53.290Z,1009.54
2022-11-05T02:07:57.465Z,1009.55
2022-11-05T02:09:01.699Z,1009.53
2022-11-05T02:10:05.992Z,1009.57
2022-11-05T02:11:10.250Z,1009.59
2022-11-05T02:12:14.357Z,1009.62
2022-11-05T02:13:18.649Z,1009.63
2022-11-05T02:14:22.870Z,1009.63
2022-11-05T02:15:27.074Z,1009.64
2022-11-05T02:16:31.406Z,1009.66
2022-11-05T02:17:35.574Z,1009.66
2022-11-05T02:18:39.996Z,1009.69
2022-11-05T02:19:44.204Z,1009.74
2022-11-05T02:20:52.204Z,1009.73
2022-11-05T02:21:52.672Z,1009.75
2022-11-05T02:22:56.873Z,1009.75
2022-11-05T02:24:01.076Z,1009.76
2022-11-05T02:25:05.304Z,1009.76
2022-11-05T02:26:09.487Z,1009.76
2022-11-05T02:27:13.763Z,1009.78
2022-11-05T02:28:17.914Z,1009.77
2022-11-05T02:29:22.245Z,1009.77
2022-11-05T02:30:26.415Z,1009.78
2022-11-05T02:31:30.615Z,1009.80
2022-11-05T02:32:34.934Z,1009.78
2022-11-05T02:33:39.063Z,1009.78
2022-11-05T02:34:43.233Z,1009.78
2022-11-05T02:35:47.445Z,1009.76
2022-11-05T02:36:51.640Z,1009.74
2022-11-05T02:37:55.954Z,1009.76
2022-11-05T02:39:00.093Z,1009.75
2022-11-05T02:40:04.331Z,1009.76
2022-11-05T02:41:08.508Z,1009.77
2022-11-05T02:42:12.729Z,1009.78
2022-11-05T02:43:16.943Z,1009.77
2022-11-05T02:44:21.264Z,1009.80
2022-11-05T02:45:25.537Z,1009.80
2022-11-05T02:46:29.768Z,1009.81
2022-11-05T02:47:33.943Z,1009.82
2022-11-05T02:48:38.196Z,1009.79
2022-11-05T02:49:42.324Z,1009.78
2022-11-05T02:50:46.631Z,1009.81
2022-11-05T02:51:50.626Z,1009.79
2022-11-05T02:52:54.987Z,1009.81
2022-11-05T02:53:59.124Z,1009.81
2022-11-05T02:55:03.393Z,1009.84
2022-11-05T02:56:07.557Z,1009.82
2022-11-05T02:57:11.753Z,1009.84
2022-11-05T02:58:15.904Z,1009.84
2022-11-05T02:59:20.114Z,1009.83
2022-11-05T03:00:24.344Z,1009.88
2022-11-05T03:01:28.879Z,1009.88
2022-11-05T03:02:33.057Z,1009.89
2022-11-05T03:03:37.071Z,1009.89
2022-11-05T03:04:41.239Z,1009.89
2022-11-05T03:05:45.418Z,1009.90
2022-11-05T03:06:49.638Z,1009.88
2022-11-05T03:07:53.928Z,1009.87
2022-11-05T03:08:58.052Z,1009.88
2022-11-05T03:10:02.265Z,1009.89
2022-11-05T03:11:06.584Z,1009.87
2022-11-05T03:12:10.776Z,1009.87
2022-11-05T03:13:15.049Z,1009.87
2022-11-05T03:14:19.133Z,1009.89
2022-11-05T03:15:23.311Z,1009.89
2022-11-05T03:16:27.521Z,1009.87
2022-11-05T03:17:31.855Z,1009.89
2022-11-05T03:18:35.977Z,1009.88
2022-11-05T03:19:40.255Z,1009.88
2022-11-05T03:20:44.486Z,1009.90
2022-11-05T03:21:48.654Z,1009.95
2022-11-05T03:22:52.750Z,1009.95
2022-11-05T03:23:57.109Z,1009.96
2022-11-05T03:25:01.218Z,1009.97
2022-11-05T03:26:05.513Z,1009.96
2022-11-05T03:27:09.643Z,1009.96
2022-11-05T03:28:13.849Z,1009.97
2022-11-05T03:29:18.079Z,1010.01
2022-11-05T03:30:22.273Z,1010.02
2022-11-05T03:31:26.474Z,1010.06
2022-11-05T03:32:30.658Z,1010.08
2022-11-05T03:33:34.982Z,1010.08
2022-11-05T03:34:38.990Z,1010.09
2022-11-05T03:35:43.261Z,1010.10
2022-11-05T03:36:47.442Z,1010.08
2022-11-05T03:37:51.609Z,1010.08
2022-11-05T03:38:55.674Z,1010.08
2022-11-05T03:39:59.904Z,1010.09
2022-11-05T03:41:04.087Z,1010.08
2022-11-05T03:42:08.281Z,1010.07
2022-11-05T03:43:12.906Z,1010.08
2022-11-05T03:44:16.667Z,1010.09
2022-11-05T03:45:20.971Z,1010.13
2022-11-05T03:46:25.145Z,1010.16
2022-11-05T03:47:29.333Z,1010.15
2022-11-05T03:48:33.605Z,1010.15
2022-11-05T03:49:37.849Z,1010.18
2022-11-05T03:50:41.978Z,1010.18
2022-11-05T03:51:46.203Z,1010.20
2022-11-05T03:52:50.340Z,1010.18
2022-11-05T03:53:54.595Z,1010.19
2022-11-05T03:54:58.728Z,1010.18
2022-11-05T03:56:02.939Z,1010.18
2022-11-05T03:57:07.126Z,1010.16
2022-11-05T03:58:11.326Z,1010.17
2022-11-05T03:59:15.484Z,1010.20
2022-11-05T04:00:19.649Z,1010.19
2022-11-05T04:01:23.943Z,1010.18
2022-11-05T04:02:28.093Z,1010.19
2022-11-05T04:03:32.252Z,1010.22
2022-11-05T04:04:36.410Z,1010.21
2022-11-05T04:05:40.744Z,1010.23
2022-11-05T04:06:44.890Z,1010.24
2022-11-05T04:07:49.052Z,1010.26
2022-11-05T04:08:53.249Z,1010.24
2022-11-05T04:09:57.447Z,1010.26
2022-11-05T04:11:01.655Z,1010.28
2022-11-05T04:12:05.754Z,1010.32
2022-11-05T04:13:10.522Z,1010.35
2022-11-05T04:14:14.288Z,1010.38
2022-11-05T04:15:18.464Z,1010.38
2022-11-05T04:16:22.663Z,1010.38
2022-11-05T04:17:26.906Z,1010.37
2022-11-05T04:18:31.139Z,1010.38
2022-11-05T04:19:35.417Z,1010.38
2022-11-05T04:20:39.677Z,1010.39
2022-11-05T04:21:43.823Z,1010.38
2022-11-05T04:22:48.117Z,1010.39
2022-11-05T04:23:52.294Z,1010.39
2022-11-05T04:24:56.430Z,1010.39
2022-11-05T04:26:00.601Z,1010.39
2022-11-05T04:27:04.870Z,1010.39
2022-11-05T04:28:09.037Z,1010.41
2022-11-05T04:29:13.313Z,1010.42
2022-11-05T04:30:17.449Z,1010.41
2022-11-05T04:31:21.638Z,1010.39
2022-11-05T04:32:25.859Z,1010.39
2022-11-05T04:33:30.154Z,1010.38
2022-11-05T04:34:34.281Z,1010.42
2022-11-05T04:35:38.550Z,1010.42
2022-11-05T04:36:42.740Z,1010.43
2022-11-05T04:37:47.053Z,1010.43
2022-11-05T04:38:51.266Z,1010.44
2022-11-05T04:39:55.413Z,1010.46
2022-11-05T04:40:59.695Z,1010.47
2022-11-05T04:42:03.866Z,1010.48
2022-11-05T04:43:13.575Z,1010.48
2022-11-05T04:44:12.179Z,1010.50
2022-11-05T04:45:16.405Z,1010.49
2022-11-05T04:46:20.681Z,1010.48
2022-11-05T04:47:24.815Z,1010.50
2022-11-05T04:48:29.038Z,1010.49
2022-11-05T04:49:33.188Z,1010.49
2022-11-05T04:50:37.389Z,1010.51
2022-11-05T04:51:41.693Z,1010.53
2022-11-05T04:52:45.845Z,1010.54
2022-11-05T04:53:50.246Z,1010.55
2022-11-05T04:54:54.300Z,1010.58
2022-11-05T04:55:58.509Z,1010.57
2022-11-05T04:57:02.802Z,1010.59
2022-11-05T04:58:07.053Z,1010.60
2022-11-05T04:59:11.288Z,1010.60
2022-11-05T05:00:15.522Z,1010.61
2022-11-05T05:01:19.890Z,1010.63
2022-11-05T05:02:23.988Z,1010.62
2022-11-05T05:03:28.196Z,1010.60
2022-11-05T05:04:32.518Z,1010.61
2022-11-05T05:05:36.774Z,1010.63
2022-11-05T05:06:40.913Z,1010.63
2022-11-05T05:07:45.191Z,1010.66
2022-11-05T05:08:49.358Z,1010.66
2022-11-05T05:09:53.584Z,1010.68
2022-11-05T05:10:57.821Z,1010.70
2022-11-05T05:12:02.011Z,1010.70
2022-11-05T05:13:06.193Z,1010.73
2022-11-05T05:14:10.399Z,1010.73
2022-11-05T05:15:14.711Z,1010.74
2022-11-05T05:16:18.951Z,1010.74
2022-11-05T05:17:23.117Z,1010.76
2022-11-05T05:18:27.344Z,1010.78
2022-11-05T05:19:31.643Z,1010.82
2022-11-05T05:20:35.867Z,1010.83
2022-11-05T05:21:40.046Z,1010.84
2022-11-05T05:22:44.368Z,1010.85
2022-11-05T05:23:48.506Z,1010.87
2022-11-05T05:24:53.212Z,1010.86
2022-11-05T05:25:57.039Z,1010.89
2022-11-05T05:27:01.241Z,1010.88
2022-11-05T05:28:05.498Z,1010.89
2022-11-05T05:29:09.562Z,1010.89
2022-11-05T05:30:13.908Z,1010.89
2022-11-05T05:31:18.109Z,1010.91
2022-11-05T05:32:22.273Z,1010.90
2022-11-05T05:33:26.499Z,1010.91
2022-11-05T05:34:30.681Z,1010.92
2022-11-05T05:35:34.917Z,1010.91
2022-11-05T05:36:39.213Z,1010.93
2022-11-05T05:37:43.488Z,1010.92
2022-11-05T05:38:47.687Z,1010.95
2022-11-05T05:39:51.913Z,1010.95
2022-11-05T05:40:56.068Z,1010.95
2022-11-05T05:42:00.376Z,1010.97
2022-11-05T05:43:04.532Z,1010.98
2022-11-05T05:44:08.731Z,1011.01
2022-11-05T05:45:12.876Z,1011.02
2022-11-05T05:46:17.176Z,1011.06
2022-11-05T05:47:21.336Z,1011.05
2022-11-05T05:48:25.599Z,1011.06
2022-11-05T05:49:29.693Z,1011.05
2022-11-05T05:50:33.901Z,1011.07
2022-11-05T05:51:38.101Z,1011.08
2022-11-05T05:52:42.376Z,1011.10
2022-11-05T05:53:46.637Z,1011.08
2022-11-05T05:54:50.757Z,1011.09
2022-11-05T05:55:54.882Z,1011.09
2022-11-05T05:56:59.242Z,1011.09
2022-11-05T05:58:03.507Z,1011.10
2022-11-05T05:59:07.687Z,1011.10
2022-11-05T06:00:11.943Z,1011.12
2022-11-05T06:01:19.385Z,1011.14
2022-11-05T06:02:20.430Z,1011.18
2022-11-05T06:03:24.529Z,1011.19
2022-11-05T06:04:28.824Z,1011.21
2022-11-05T06:05:33.072Z,1011.22
2022-11-05T06:06:37.226Z,1011.20
2022-11-05T06:07:41.426Z,1011.20
2022-11-05T06:08:45.599Z,1011.19
2022-11-05T06:09:49.905Z,1011.19
2022-11-05T06:10:54.231Z,1011.19
2022-11-05T06:11:58.465Z,1011.20
2022-11-05T06:13:02.746Z,1011.20
2022-11-05T06:14:07.027Z,1011.25
2022-11-05T06:15:11.265Z,1011.27
2022-11-05T06:16:15.428Z,1011.26
2022-11-05T06:17:19.632Z,1011.26
2022-11-05T06:18:23.821Z,1011.26
2022-11-05T06:19:28.002Z,1011.25
2022-11-05T06:20:32.206Z,1011.25
2022-11-05T06:21:36.438Z,1011.28
2022-11-05T06:22:40.714Z,1011.29
2022-11-05T06:23:44.975Z,1011.30
2022-11-05T06:24:49.119Z,1011.33
2022-11-05T06:25:53.417Z,1011.35
2022-11-05T06:26:57.609Z,1011.35
2022-11-05T06:28:01.797Z,1011.38
2022-11-05T06:29:06.100Z,1011.39
2022-11-05T06:30:10.382Z,1011.41
2022-11-05T06:31:14.523Z,1011.40
2022-11-05T06:32:18.799Z,1011.40
2022-11-05T06:33:22.966Z,1011.40
2022-11-05T06:34:27.251Z,1011.42
2022-11-05T06:35:31.392Z,1011.42
2022-11-05T06:36:35.578Z,1011.46
2022-11-05T06:37:39.884Z,1011.45
2022-11-05T06:38:47.062Z,1011.46
2022-11-05T06:39:50.253Z,1011.47
2022-11-05T06:40:54.550Z,1011.47
2022-11-05T06:43:02.919Z,1011.47
2022-11-05T06:44:07.100Z,1011.51
2022-11-05T06:45:11.322Z,1011.50
2022-11-05T06:46:15.547Z,1011.50
2022-11-05T06:47:19.736Z,1011.51
2022-11-05T06:48:23.833Z,1011.49
2022-11-05T06:49:28.090Z,1011.52
2022-11-05T06:50:32.327Z,1011.50
2022-11-05T06:51:36.549Z,1011.50
2022-11-05T06:52:41.360Z,1011.51
2022-11-05T06:53:44.973Z,1011.52
2022-11-05T06:54:49.272Z,1011.54
2022-11-05T06:55:53.489Z,1011.54
2022-11-05T06:56:57.639Z,1011.55
2022-11-05T06:58:01.845Z,1011.58
2022-11-05T06:59:06.147Z,1011.58
2022-11-05T07:00:10.348Z,1011.60
2022-11-05T07:01:14.586Z,1011.61
2022-11-05T07:02:18.973Z,1011.62
2022-11-05T07:03:23.068Z,1011.64
2022-11-05T07:04:27.220Z,1011.67
2022-11-05T07:05:31.523Z,1011.68
2022-11-05T07:06:37.138Z,1011.71
2022-11-05T07:07:39.869Z,1011.73
2022-11-05T07:08:44.139Z,1011.72
2022-11-05T07:09:48.406Z,1011.74
2022-11-05T07:10:52.641Z,1011.75
2022-11-05T07:11:56.900Z,1011.75
2022-11-05T07:13:06.619Z,1011.77
2022-11-05T07:14:05.381Z,1011.79
2022-11-05T07:15:09.541Z,1011.79
2022-11-05T07:16:13.825Z,1011.78
2022-11-05T07:17:17.993Z,1011.79
2022-11-05T07:18:22.216Z,1011.79
2022-11-05T07:19:26.393Z,1011.79
2022-11-05T07:20:36.703Z,1011.78
2022-11-05T07:21:39.475Z,1011.80
2022-11-05T07:22:43.635Z,1011.83
2022-11-05T07:23:47.816Z,1011.84
2022-11-05T07:24:52.085Z,1011.83
2022-11-05T07:25:56.263Z,1011.84
2022-11-05T07:27:00.470Z,1011.85
2022-11-05T07:28:04.774Z,1011.88
2022-11-05T07:29:08.955Z,1011.91
2022-11-05T07:30:13.237Z,1011.93
2022-11-05T07:31:17.409Z,1011.94
2022-11-05T07:32:21.688Z,1011.97
2022-11-05T07:33:25.857Z,1011.97
2022-11-05T07:34:30.046Z,1011.97
2022-11-05T07:35:34.315Z,1011.98
2022-11-05T07:36:38.578Z,1012.00
2022-11-05T07:37:42.795Z,1011.99
2022-11-05T07:38:46.938Z,1012.02
2022-11-05T07:39:51.135Z,1012.01
2022-11-05T07:40:55.412Z,1012.01
2022-11-05T07:41:59.560Z,1012.01
2022-11-05T07:43:03.744Z,1012.02
2022-11-05T07:44:07.943Z,1011.98
2022-11-05T07:45:12.253Z,1012.00
2022-11-05T07:46:16.524Z,1012.00
2022-11-05T07:47:20.683Z,1011.98
2022-11-05T07:48:24.977Z,1011.98
2022-11-05T07:49:29.177Z,1012.01
2022-11-05T07:50:33.346Z,1012.00
2022-11-05T07:51:37.638Z,1012.02
2022-11-05T07:52:41.831Z,1012.03
2022-11-05T07:53:46.063Z,1012.06
2022-11-05T07:54:50.131Z,1012.08
2022-11-05T07:55:54.422Z,1012.09
2022-11-05T07:56:58.643Z,1012.08
2022-11-05T07:58:02.856Z,1012.10
2022-11-05T07:59:07.170Z,1012.12
2022-11-05T08:00:11.270Z,1012.13
2022-11-05T08:01:15.582Z,1012.11
2022-11-05T08:02:19.976Z,1012.13
2022-11-05T08:03:24.013Z,1012.14
2022-11-05T08:04:28.116Z,1012.14
2022-11-05T08:05:32.354Z,1012.14
2022-11-05T08:06:36.502Z,1012.15
2022-11-05T08:07:40.713Z,1012.17
2022-11-05T08:08:45.028Z,1012.20
2022-11-05T08:09:49.179Z,1012.19
2022-11-05T08:10:53.400Z,1012.20
2022-11-05T08:12:02.702Z,1012.22
2022-11-05T08:13:01.866Z,1012.21
2022-11-05T08:14:06.042Z,1012.25
2022-11-05T08:15:10.251Z,1012.24
2022-11-05T08:16:14.449Z,1012.23
2022-11-05T08:17:18.784Z,1012.25
2022-11-05T08:18:23.034Z,1012.25
2022-11-05T08:19:27.208Z,1012.27
2022-11-05T08:20:31.517Z,1012.29
2022-11-05T08:21:35.708Z,1012.32
2022-11-05T08:22:39.892Z,1012.31
2022-11-05T08:23:44.093Z,1012.29
2022-11-05T08:24:48.176Z,1012.30
2022-11-05T08:25:52.539Z,1012.32
2022-11-05T08:26:56.710Z,1012.31
2022-11-05T08:28:01.038Z,1012.33
2022-11-05T08:29:05.272Z,1012.35
2022-11-05T08:30:09.415Z,1012.34
2022-11-05T08:31:13.673Z,1012.32
2022-11-05T08:32:17.890Z,1012.34
2022-11-05T08:33:22.212Z,1012.37
2022-11-05T08:34:26.357Z,1012.36
2022-11-05T08:35:30.567Z,1012.35
2022-11-05T08:36:34.866Z,1012.35
2022-11-05T08:37:39.174Z,1012.34
2022-11-05T08:38:43.343Z,1012.31
2022-11-05T08:39:47.648Z,1012.30
2022-11-05T08:40:51.852Z,1012.33
2022-11-05T08:41:56.094Z,1012.32
2022-11-05T08:43:00.384Z,1012.30
2022-11-05T08:44:04.648Z,1012.33
2022-11-05T08:45:08.912Z,1012.32
2022-11-05T08:46:13.064Z,1012.32
2022-11-05T08:47:17.381Z,1012.30
2022-11-05T08:48:21.552Z,1012.29
2022-11-05T08:49:25.868Z,1012.29
2022-11-05T08:50:30.116Z,1012.28
2022-11-05T08:51:34.302Z,1012.27
2022-11-05T08:52:38.534Z,1012.27
2022-11-05T08:53:42.751Z,1012.28
2022-11-05T08:54:46.912Z,1012.30
2022-11-05T08:55:51.131Z,1012.29
2022-11-05T08:56:55.377Z,1012.30
2022-11-05T08:57:59.607Z,1012.30
2022-11-05T08:59:03.847Z,1012.34
2022-11-05T09:00:08.033Z,1012.31
2022-11-05T09:01:12.398Z,1012.34
2022-11-05T09:02:16.785Z,1012.33
2022-11-05T09:03:20.843Z,1012.33
2022-11-05T09:04:24.993Z,1012.32
2022-11-05T09:05:29.296Z,1012.34
2022-11-05T09:06:33.551Z,1012.36
2022-11-05T09:07:37.813Z,1012.37
2022-11-05T09:08:41.977Z,1012.38
2022-11-05T09:09:46.292Z,1012.40
2022-11-05T09:10:50.413Z,1012.40
2022-11-05T09:12:11.896Z,1012.40
2022-11-05T09:12:58.971Z,1012.40
2022-11-05T09:14:03.112Z,1012.42
2022-11-05T09:15:07.398Z,1012.45
2022-11-05T09:16:11.540Z,1012.49
2022-11-05T09:17:15.741Z,1012.49
2022-11-05T09:18:19.959Z,1012.50
2022-11-05T09:19:24.274Z,1012.52
2022-11-05T09:20:28.429Z,1012.53
2022-11-05T09:21:32.665Z,1012.54
2022-11-05T09:22:42.168Z,1012.56
2022-11-05T09:23:41.237Z,1012.58
2022-11-05T09:24:45.284Z,1012.55
2022-11-05T09:25:49.583Z,1012.57
2022-11-05T09:26:53.876Z,1012.58
2022-11-05T09:27:58.178Z,1012.58
2022-11-05T09:29:02.480Z,1012.61
2022-11-05T09:30:06.665Z,1012.61
2022-11-05T09:31:10.872Z,1012.61
2022-11-05T09:32:15.185Z,1012.63
2022-11-05T09:33:19.330Z,1012.62
2022-11-05T09:34:23.570Z,1012.64
2022-11-05T09:35:27.915Z,1012.66
2022-11-05T09:36:32.078Z,1012.67
2022-11-05T09:37:36.289Z,1012.64
2022-11-05T09:38:40.558Z,1012.63
2022-11-05T09:39:44.855Z,1012.63
2022-11-05T09:40:49.031Z,1012.66
2022-11-05T09:41:53.373Z,1012.63
2022-11-05T09:42:57.587Z,1012.66
2022-11-05T09:44:01.822Z,1012.66
2022-11-05T09:45:06.037Z,1012.67
2022-11-05T09:46:10.384Z,1012.68
2022-11-05T09:47:14.551Z,1012.70
2022-11-05T09:48:18.960Z,1012.70
2022-11-05T09:49:23.206Z,1012.70
2022-11-05T09:50:27.473Z,1012.71
2022-11-05T09:51:31.652Z,1012.69
2022-11-05T09:52:35.890Z,1012.73
2022-11-05T09:53:40.212Z,1012.76
2022-11-05T09:54:44.477Z,1012.75
2022-11-05T09:55:48.774Z,1012.76
2022-11-05T09:56:53.006Z,1012.79
2022-11-05T09:57:57.299Z,1012.77
2022-11-05T09:59:01.442Z,1012.77
2022-11-05T10:00:05.687Z,1012.78
2022-11-05T10:01:09.955Z,1012.82
2022-11-05T10:02:14.283Z,1012.84
2022-11-05T10:03:18.366Z,1012.86
2022-11-05T10:04:22.619Z,1012.88
2022-11-05T10:05:26.965Z,1012.92
2022-11-05T10:06:31.151Z,1012.90
2022-11-05T10:07:35.370Z,1012.90
2022-11-05T10:08:39.631Z,1012.93
2022-11-05T10:09:43.832Z,1012.93
2022-11-05T10:10:48.055Z,1012.94
2022-11-05T10:11:52.282Z,1012.97
2022-11-05T10:12:56.503Z,1012.95
2022-11-05T10:14:00.833Z,1012.96
2022-11-05T10:15:04.933Z,1012.94
2022-11-05T10:16:09.272Z,1012.95
2022-11-05T10:17:13.530Z,1012.92
2022-11-05T10:18:17.702Z,1012.89
2022-11-05T10:19:21.916Z,1012.88
2022-11-05T10:20:26.169Z,1012.87
2022-11-05T10:21:59.607Z,1012.87
2022-11-05T10:22:34.626Z,1012.87
2022-11-05T10:23:38.896Z,1012.88
2022-11-05T10:24:43.205Z,1012.89
2022-11-05T10:25:47.480Z,1012.89
2022-11-05T10:26:51.702Z,1012.89
2022-11-05T10:27:55.878Z,1012.89
2022-11-05T10:29:00.208Z,1012.89
2022-11-05T10:30:04.424Z,1012.91
2022-11-05T10:31:08.607Z,1012.92
2022-11-05T10:32:12.965Z,1012.92
2022-11-05T10:33:17.250Z,1012.92
2022-11-05T10:34:21.459Z,1012.93
2022-11-05T10:35:25.772Z,1012.93
2022-11-05T10:36:29.923Z,1012.96
2022-11-05T10:37:39.629Z,1012.96
2022-11-05T10:38:38.514Z,1012.97
2022-11-05T10:39:42.763Z,1012.98
2022-11-05T10:40:46.969Z,1012.97
2022-11-05T10:41:51.178Z,1012.98
2022-11-05T10:42:55.528Z,1012.99
2022-11-05T10:43:59.689Z,1013.00
2022-11-05T10:45:03.974Z,1012.99
2022-11-05T10:46:08.349Z,1012.98
2022-11-05T10:47:12.525Z,1013.01
2022-11-05T10:48:16.764Z,1013.01
2022-11-05T10:49:21.035Z,1013.01
2022-11-05T10:50:25.291Z,1013.00
2022-11-05T10:51:29.482Z,1013.03
2022-11-05T10:52:33.767Z,1013.05
2022-11-05T10:53:38.022Z,1013.07
2022-11-05T10:54:42.155Z,1013.09
2022-11-05T10:55:46.570Z,1013.09
2022-11-05T10:56:50.745Z,1013.10
2022-11-05T10:57:54.960Z,1013.11
2022-11-05T10:58:59.344Z,1013.09
2022-11-05T11:00:09.609Z,1013.10
2022-11-05T11:01:12.469Z,1013.11
2022-11-05T11:02:16.709Z,1013.08
2022-11-05T11:03:20.853Z,1013.10
2022-11-05T11:04:25.150Z,1013.10
2022-11-05T11:05:29.368Z,1013.11
2022-11-05T11:06:33.591Z,1013.12
2022-11-05T11:07:37.845Z,1013.12
2022-11-05T11:08:42.192Z,1013.12
2022-11-05T11:09:46.464Z,1013.10
2022-11-05T11:10:50.568Z,1013.10
2022-11-05T11:11:54.886Z,1013.12
2022-11-05T11:12:59.221Z,1013.13
2022-11-05T11:14:03.488Z,1013.15
2022-11-05T11:15:07.763Z,1013.14
2022-11-05T11:16:11.980Z,1013.14
2022-11-05T11:17:16.330Z,1013.20
2022-11-05T11:18:20.520Z,1013.18
2022-11-05T11:19:24.852Z,1013.16
2022-11-05T11:20:29.074Z,1013.18
2022-11-05T11:21:33.349Z,1013.18
2022-11-05T11:22:37.557Z,1013.16
2022-11-05T11:23:41.835Z,1013.16
2022-11-05T11:24:46.164Z,1013.16
2022-11-05T11:25:50.363Z,1013.15
2022-11-05T11:26:54.608Z,1013.14
2022-11-05T11:27:58.894Z,1013.13
2022-11-05T11:29:03.143Z,1013.13
2022-11-05T11:30:07.401Z,1013.12
2022-11-05T11:31:11.754Z,1013.13
2022-11-05T11:32:15.929Z,1013.12
2022-11-05T11:33:20.236Z,1013.13
2022-11-05T11:34:24.526Z,1013.11
2022-11-05T11:35:28.798Z,1013.13
2022-11-05T11:36:33.000Z,1013.10
2022-11-05T11:37:37.211Z,1013.11
2022-11-05T11:38:41.472Z,1013.10
2022-11-05T11:39:45.723Z,1013.08
2022-11-05T11:40:49.986Z,1013.07
2022-11-05T11:41:54.330Z,1013.05
2022-11-05T11:42:58.540Z,1013.04
2022-11-05T11:44:02.781Z,1013.04
2022-11-05T11:45:07.126Z,1013.02
2022-11-05T11:46:15.028Z,1013.04
2022-11-05T11:47:15.569Z,1013.03
2022-11-05T11:48:19.938Z,1013.01
2022-11-05T11:49:24.163Z,1013.02
2022-11-05T11:50:28.351Z,1012.99
2022-11-05T11:51:32.574Z,1012.98
2022-11-05T11:52:36.858Z,1012.97
2022-11-05T11:53:41.077Z,1012.95
2022-11-05T11:54:45.439Z,1012.95
2022-11-05T11:55:49.750Z,1012.98
2022-11-05T11:56:53.929Z,1012.96
2022-11-05T11:57:58.287Z,1012.95
2022-11-05T11:59:02.494Z,1012.95
2022-11-05T12:00:09.441Z,1012.98
2022-11-05T12:01:11.124Z,1012.96
2022-11-05T12:02:15.519Z,1012.93
2022-11-05T12:03:20.380Z,1012.94
2022-11-05T12:04:23.976Z,1012.95
2022-11-05T12:05:28.312Z,1012.95
2022-11-05T12:06:32.548Z,1012.95
2022-11-05T12:07:36.834Z,1012.96
2022-11-05T12:08:45.233Z,1012.94
2022-11-05T12:09:45.456Z,1012.95
2022-11-05T12:10:49.682Z,1012.97
2022-11-05T12:11:54.052Z,1012.95
2022-11-05T12:12:58.275Z,1012.95
2022-11-05T12:14:02.702Z,1012.96
2022-11-05T12:15:07.002Z,1012.96
2022-11-05T12:16:11.208Z,1012.94
2022-11-05T12:17:15.531Z,1012.92
2022-11-05T12:18:19.890Z,1012.92
2022-11-05T12:19:24.143Z,1012.91
2022-11-05T12:20:28.542Z,1012.90
2022-11-05T12:21:51.377Z,1012.89
2022-11-05T12:22:37.118Z,1012.90
2022-11-05T12:23:41.430Z,1012.89
2022-11-05T12:24:45.712Z,1012.89
2022-11-05T12:25:50.097Z,1012.88
2022-11-05T12:26:54.361Z,1012.87
2022-11-05T12:27:58.628Z,1012.86
2022-11-05T12:29:18.362Z,1012.84
2022-11-05T12:30:07.270Z,1012.82
2022-11-05T12:31:11.571Z,1012.82
2022-11-05T12:32:15.836Z,1012.82
2022-11-05T12:33:20.129Z,1012.84
2022-11-05T12:34:24.484Z,1012.84
2022-11-05T12:35:28.789Z,1012.85
2022-11-05T12:36:33.007Z,1012.85
2022-11-05T12:37:37.412Z,1012.84
2022-11-05T12:38:41.623Z,1012.83
2022-11-05T12:39:45.981Z,1012.81
2022-11-05T12:40:50.212Z,1012.80
2022-11-05T12:41:54.489Z,1012.77
2022-11-05T12:42:58.766Z,1012.77
2022-11-05T12:44:03.087Z,1012.79
2022-11-05T12:45:07.448Z,1012.79
2022-11-05T12:46:11.668Z,1012.78
2022-11-05T12:47:15.977Z,1012.77
2022-11-05T12:48:26.825Z,1012.78
2022-11-05T12:49:24.635Z,1012.78
2022-11-05T12:50:28.848Z,1012.78
2022-11-05T12:51:33.098Z,1012.74
2022-11-05T12:52:37.392Z,1012.70
2022-11-05T12:53:41.860Z,1012.71
2022-11-05T12:54:46.045Z,1012.74
2022-11-05T12:55:50.280Z,1012.72
2022-11-05T12:56:54.564Z,1012.72
2022-11-05T12:57:58.915Z,1012.72